Time,TemperatureF,DewpointF,PressureIn,WindDirection,WindDirectionDegrees,WindSpeedMPH,WindSpeedGustMPH,Humidity,HourlyPrecipIn,Conditions,Clouds,dailyrainin,SolarRadiationWatts/m^2,SoftwareType,DateUTC
2013-04-13 00:03:00,39.5,35.7,29.64,ESE,119,3.5,3.5,86,0.00,RA,,0.00,0.0,WeatherDisplay:10.37,2013-04-12 23:03:00,
2013-04-13 00:08:00,39.5,35.7,29.64,ESE,119,3.5,3.5,86,0.00,RA,,0.00,0.0,WeatherDisplay:10.37,2013-04-12 23:08:00,
2013-04-13 00:13:00,39.5,35.7,29.65,ESE,119,3.5,3.5,86,0.00,CLR,,0.00,0.0,WeatherDisplay:10.37,2013-04-12 23:13:00,
2013-04-13 00:18:00,39.5,35.7,29.65,ESE,119,3.5,3.5,86,0.00,CLR,,0.00,0.0,WeatherDisplay:10.37,2013-04-12 23:18:00,
2013-04-13 00:23:00,39.5,35.7,29.65,ESE,119,3.5,3.5,86,0.00,CLR,,0.00,0.0,WeatherDisplay:10.37,2013-04-12 23:23:00,
2013-04-13 00:28:00,39.5,35.7,29.65,ESE,119,4.6,4.6,86,0.00,CLR,,0.00,0.0,WeatherDisplay:10.37,2013-04-12 23:28:00,
2013-04-13 00:33:00,39.5,35.7,29.66,ESE,121,3.0,3.0,86,0.00,CLR,,0.00,0.0,WeatherDisplay:10.37,2013-04-12 23:33:00,
2013-04-13 00:38:00,39.5,36.0,29.66,ESE,120,2.3,2.3,87,0.00,CLR,,0.00,0.0,WeatherDisplay:10.37,2013-04-12 23:38:00,
2013-04-13 00:43:00,39.5,36.0,29.66,ESE,121,2.3,2.3,87,0.00,CLR,,0.00,0.0,WeatherDisplay:10.37,2013-04-12 23:43:00,
2013-04-13 00:48:00,39.5,36.0,29.66,ESE,119,1.2,0.0,87,0.00,CLR,,0.00,0.0,WeatherDisplay:10.37,2013-04-12 23:48:00,
2013-04-13 00:53:00,39.5,36.0,29.66,ESE,119,3.5,3.5,87,0.00,CLR,,0.00,0.0,WeatherDisplay:10.37,2013-04-12 23:53:00,
2013-04-13 00:58:00,39.4,35.9,29.67,ESE,121,3.5,3.5,87,0.00,CLR,,0.00,0.0,WeatherDisplay:10.37,2013-04-12 23:58:00,
2013-04-13 01:03:00,39.5,36.0,29.67,ESE,121,3.5,3.5,87,0.00,CLR,,0.00,0.0,WeatherDisplay:10.37,2013-04-13 00:03:00,
2013-04-13 01:08:00,39.4,35.9,29.67,ESE,119,0.0,0.0,87,0.00,CLR,,0.00,0.0,WeatherDisplay:10.37,2013-04-13 00:08:00,
2013-04-13 01:13:00,39.4,35.9,29.67,ESE,121,0.0,0.0,87,0.00,CLR,,0.00,0.0,WeatherDisplay:10.37,2013-04-13 00:13:00,
2013-04-13 01:18:00,39.4,35.9,29.67,ESE,119,0.0,0.0,87,0.00,CLR,,0.00,0.0,WeatherDisplay:10.37,2013-04-13 00:18:00,
2013-04-13 01:23:00,39.4,35.9,29.67,ESE,121,0.0,0.0,87,0.00,CLR,,0.00,0.0,WeatherDisplay:10.37,2013-04-13 00:23:00,
2013-04-13 01:28:00,39.4,35.9,29.67,ESE,120,0.0,0.0,87,0.00,CLR,,0.00,0.0,WeatherDisplay:10.37,2013-04-13 00:28:00,
2013-04-13 01:33:00,39.4,35.9,29.67,ESE,121,0.0,0.0,87,0.00,CLR,,0.00,0.0,WeatherDisplay:10.37,2013-04-13 00:33:00,
2013-04-13 01:38:00,39.4,35.9,29.67,ESE,118,0.0,0.0,87,0.00,CLR,,0.00,0.0,WeatherDisplay:10.37,2013-04-13 00:38:00,
2013-04-13 01:43:00,39.3,36.0,29.67,ESE,119,0.0,0.0,88,0.01,RA,,0.01,0.0,WeatherDisplay:10.37,2013-04-13 00:43:00,
2013-04-13 01:48:00,39.3,35.8,29.67,ESE,118,0.0,0.0,87,0.01,RA,,0.01,0.0,WeatherDisplay:10.37,2013-04-13 00:48:00,
2013-04-13 01:53:00,39.3,35.8,29.68,ESE,121,0.0,0.0,87,0.01,,,0.01,0.0,WeatherDisplay:10.37,2013-04-13 00:53:00,
2013-04-13 01:58:00,39.3,35.8,29.68,ESE,119,0.0,0.0,87,0.01,CLR,,0.01,0.0,WeatherDisplay:10.37,2013-04-13 00:58:00,
2013-04-13 02:03:00,39.2,35.7,29.68,ESE,118,0.0,0.0,87,0.01,CLR,,0.01,0.0,WeatherDisplay:10.37,2013-04-13 01:03:00,
2013-04-13 02:08:00,39.2,35.9,29.68,ESE,118,0.0,0.0,88,0.01,CLR,,0.01,0.0,WeatherDisplay:10.37,2013-04-13 01:08:00,
2013-04-13 02:13:00,39.2,35.9,29.68,ESE,118,0.0,0.0,88,0.01,CLR,,0.01,0.0,WeatherDisplay:10.37,2013-04-13 01:13:00,
2013-04-13 02:18:00,39.2,35.9,29.68,ESE,119,0.0,0.0,88,0.01,CLR,,0.01,0.0,WeatherDisplay:10.37,2013-04-13 01:18:00,
2013-04-13 02:23:00,39.2,35.9,29.68,ESE,121,0.0,0.0,88,0.01,CLR,,0.01,0.0,WeatherDisplay:10.37,2013-04-13 01:23:00,
2013-04-13 02:28:00,39.2,35.9,29.68,ESE,118,0.0,0.0,88,0.01,CLR,,0.01,0.0,WeatherDisplay:10.37,2013-04-13 01:28:00,
2013-04-13 02:33:00,39.2,35.9,29.68,ESE,122,0.0,0.0,88,0.01,CLR,,0.01,0.0,WeatherDisplay:10.37,2013-04-13 01:33:00,
2013-04-13 02:38:00,39.2,36.2,29.68,ESE,121,0.0,0.0,89,0.01,CLR,,0.01,0.0,WeatherDisplay:10.37,2013-04-13 01:38:00,
2013-04-13 02:43:00,39.2,35.9,29.68,ESE,118,0.0,0.0,88,0.00,CLR,,0.01,0.0,WeatherDisplay:10.37,2013-04-13 01:43:00,
2013-04-13 02:48:00,39.2,35.9,29.68,ESE,122,0.0,0.0,88,0.00,CLR,,0.01,0.0,WeatherDisplay:10.37,2013-04-13 01:48:00,
2013-04-13 02:53:00,39.1,36.1,29.68,ESE,122,3.5,3.5,89,0.00,CLR,,0.01,0.0,WeatherDisplay:10.37,2013-04-13 01:53:00,
2013-04-13 02:58:00,39.1,36.1,29.68,ESE,118,3.5,3.5,89,0.00,CLR,,0.01,0.0,WeatherDisplay:10.37,2013-04-13 01:58:00,
2013-04-13 03:03:00,39.1,36.1,29.68,ESE,120,1.2,0.0,89,0.00,CLR,,0.01,0.0,WeatherDisplay:10.37,2013-04-13 02:03:00,
2013-04-13 03:09:00,39.1,36.1,29.68,ESE,121,3.5,3.5,89,0.00,CLR,,0.01,0.0,WeatherDisplay:10.37,2013-04-13 02:09:00,
2013-04-13 03:14:00,39.1,36.1,29.68,ESE,121,3.5,3.5,89,0.00,CLR,,0.01,0.0,WeatherDisplay:10.37,2013-04-13 02:14:00,
2013-04-13 03:19:00,39.1,36.1,29.68,ESE,119,0.0,0.0,89,0.00,CLR,,0.01,0.0,WeatherDisplay:10.37,2013-04-13 02:19:00,
2013-04-13 03:24:00,39.1,36.1,29.69,ESE,119,3.5,0.0,89,0.00,CLR,,0.01,0.0,WeatherDisplay:10.37,2013-04-13 02:24:00,
2013-04-13 03:29:00,39.0,36.0,29.68,ESE,119,0.0,0.0,89,0.00,CLR,,0.01,0.0,WeatherDisplay:10.37,2013-04-13 02:29:00,
2013-04-13 03:34:00,39.0,36.0,29.68,ESE,122,2.3,2.3,89,0.00,CLR,,0.01,0.0,WeatherDisplay:10.37,2013-04-13 02:34:00,
2013-04-13 03:39:00,39.0,36.0,29.68,ESE,119,2.3,2.3,89,0.00,CLR,,0.01,0.0,WeatherDisplay:10.37,2013-04-13 02:39:00,
2013-04-13 03:44:00,39.0,36.0,29.68,ESE,121,0.0,0.0,89,0.00,CLR,,0.01,0.0,WeatherDisplay:10.37,2013-04-13 02:44:00,
2013-04-13 03:49:00,39.0,36.0,29.68,ESE,119,1.2,1.2,89,0.00,CLR,,0.01,0.0,WeatherDisplay:10.37,2013-04-13 02:49:00,
2013-04-13 03:54:00,39.0,36.0,29.68,ESE,118,2.3,2.3,89,0.00,CLR,,0.01,0.0,WeatherDisplay:10.37,2013-04-13 02:54:00,
2013-04-13 03:59:00,39.0,36.3,29.69,ESE,120,2.3,2.3,90,0.00,CLR,,0.01,0.0,WeatherDisplay:10.37,2013-04-13 02:59:00,
2013-04-13 04:04:00,39.0,36.3,29.69,ESE,118,2.3,2.3,90,0.00,CLR,,0.01,0.0,WeatherDisplay:10.37,2013-04-13 03:04:00,
2013-04-13 04:09:00,39.0,36.0,29.68,ESE,121,2.3,2.3,89,0.00,CLR,,0.01,0.0,WeatherDisplay:10.37,2013-04-13 03:09:00,
2013-04-13 04:14:00,39.1,36.4,29.69,ESE,118,3.5,3.5,90,0.00,CLR,,0.01,0.0,WeatherDisplay:10.37,2013-04-13 03:14:00,
2013-04-13 04:19:00,39.1,36.4,29.69,ESE,121,3.5,3.5,90,0.00,CLR,,0.01,0.0,WeatherDisplay:10.37,2013-04-13 03:19:00,
2013-04-13 04:24:00,39.1,36.4,29.68,ESE,118,2.3,2.3,90,0.00,CLR,,0.01,0.0,WeatherDisplay:10.37,2013-04-13 03:24:00,
2013-04-13 04:29:00,39.1,36.4,29.68,ESE,119,2.3,2.3,90,0.00,CLR,,0.01,0.0,WeatherDisplay:10.37,2013-04-13 03:29:00,
2013-04-13 04:34:00,39.1,36.4,29.69,ESE,118,3.5,3.5,90,0.00,CLR,,0.01,0.0,WeatherDisplay:10.37,2013-04-13 03:34:00,
2013-04-13 04:39:00,39.2,36.5,29.69,ESE,121,3.5,3.5,90,0.00,CLR,,0.01,0.0,WeatherDisplay:10.37,2013-04-13 03:39:00,
2013-04-13 04:44:00,39.1,36.4,29.69,ESE,121,3.5,3.5,90,0.00,CLR,,0.01,0.0,WeatherDisplay:10.37,2013-04-13 03:44:00,
2013-04-13 04:49:00,39.2,36.5,29.69,ESE,119,1.2,1.2,90,0.00,CLR,,0.01,0.0,WeatherDisplay:10.37,2013-04-13 03:49:00,
2013-04-13 04:54:00,39.2,36.5,29.69,ESE,121,3.5,3.5,90,0.00,CLR,,0.01,0.0,WeatherDisplay:10.37,2013-04-13 03:54:00,
2013-04-13 04:59:00,39.2,36.5,29.69,ESE,120,4.0,4.0,90,0.00,CLR,,0.01,0.0,WeatherDisplay:10.37,2013-04-13 03:59:00,
2013-04-13 05:00:00,39.2,36.5,29.68,ESE,119,4.0,4.0,90,0.00,CLR,,0.01,0.0,WeatherDisplay:10.37,2013-04-13 04:00:00,
2013-04-13 05:05:00,39.2,36.5,29.68,ESE,119,3.5,3.5,90,0.00,CLR,,0.01,0.0,WeatherDisplay:10.37,2013-04-13 04:05:00,
2013-04-13 05:10:00,39.2,36.5,29.68,ESE,118,3.0,3.0,90,0.00,CLR,,0.01,0.0,WeatherDisplay:10.37,2013-04-13 04:10:00,
2013-04-13 05:15:00,39.2,36.5,29.68,ESE,120,2.3,2.3,90,0.00,CLR,,0.01,0.0,WeatherDisplay:10.37,2013-04-13 04:15:00,
2013-04-13 05:20:00,39.2,36.5,29.69,ESE,119,3.5,3.5,90,0.00,CLR,,0.01,0.0,WeatherDisplay:10.37,2013-04-13 04:20:00,
2013-04-13 05:25:00,39.2,36.5,29.69,ESE,121,2.3,2.3,90,0.00,CLR,,0.01,0.0,WeatherDisplay:10.37,2013-04-13 04:25:00,
2013-04-13 05:30:00,39.2,36.5,29.69,ESE,120,0.0,0.0,90,0.00,CLR,,0.01,0.0,WeatherDisplay:10.37,2013-04-13 04:30:00,
2013-04-13 05:35:00,39.2,36.5,29.69,ESE,121,2.3,2.3,90,0.00,CLR,,0.01,0.0,WeatherDisplay:10.37,2013-04-13 04:35:00,
2013-04-13 05:40:00,39.2,36.5,29.69,ESE,119,0.0,0.0,90,0.00,CLR,,0.01,0.0,WeatherDisplay:10.37,2013-04-13 04:40:00,
2013-04-13 05:45:00,39.2,36.5,29.69,ESE,119,0.0,0.0,90,0.00,CLR,,0.01,0.0,WeatherDisplay:10.37,2013-04-13 04:45:00,
2013-04-13 05:50:00,39.2,36.5,29.69,ESE,122,1.2,0.0,90,0.00,CLR,,0.01,0.0,WeatherDisplay:10.37,2013-04-13 04:50:00,
2013-04-13 05:55:00,39.2,36.5,29.70,ESE,118,0.0,0.0,90,0.00,CLR,,0.01,0.0,WeatherDisplay:10.37,2013-04-13 04:55:00,
2013-04-13 06:00:00,39.2,36.5,29.70,ESE,121,0.0,0.0,90,0.00,OVC,,0.01,0.0,WeatherDisplay:10.37,2013-04-13 05:00:00,
2013-04-13 06:05:00,39.2,36.5,29.70,ESE,121,0.0,0.0,90,0.00,OVC,,0.01,0.0,WeatherDisplay:10.37,2013-04-13 05:05:00,
2013-04-13 06:10:00,39.2,36.5,29.70,ESE,121,0.0,0.0,90,0.00,OVC,,0.01,0.0,WeatherDisplay:10.37,2013-04-13 05:10:00,
2013-04-13 06:15:00,39.2,36.5,29.70,ESE,119,0.0,0.0,90,0.00,OVC,,0.01,0.0,WeatherDisplay:10.37,2013-04-13 05:15:00,
2013-04-13 06:20:00,39.2,36.5,29.70,ESE,121,0.0,0.0,90,0.00,OVC,,0.01,0.0,WeatherDisplay:10.37,2013-04-13 05:20:00,
2013-04-13 06:25:00,39.1,36.4,29.70,ESE,118,0.0,0.0,90,0.00,OVC,,0.01,0.0,WeatherDisplay:10.37,2013-04-13 05:25:00,
2013-04-13 06:30:00,39.1,36.4,29.70,ESE,119,0.0,0.0,90,0.00,OVC,,0.01,0.0,WeatherDisplay:10.37,2013-04-13 05:30:00,
2013-04-13 06:35:00,39.1,36.4,29.70,ESE,121,0.0,0.0,90,0.00,OVC,,0.01,0.0,WeatherDisplay:10.37,2013-04-13 05:35:00,
2013-04-13 06:40:00,39.2,36.5,29.70,ESE,119,0.0,0.0,90,0.00,BKN,,0.01,5.0,WeatherDisplay:10.37,2013-04-13 05:40:00,
2013-04-13 06:45:00,39.2,36.5,29.70,ESE,122,0.0,0.0,90,0.00,BKN,,0.01,9.0,WeatherDisplay:10.37,2013-04-13 05:45:00,
2013-04-13 06:50:00,39.2,36.5,29.71,ESE,119,0.0,0.0,90,0.00,BKN,,0.01,11.0,WeatherDisplay:10.37,2013-04-13 05:50:00,
2013-04-13 06:55:00,39.2,36.5,29.71,ESE,118,0.0,0.0,90,0.00,BKN,,0.01,9.0,WeatherDisplay:10.37,2013-04-13 05:55:00,
2013-04-13 07:00:00,39.2,36.5,29.71,ESE,119,0.0,0.0,90,0.00,BKN,,0.01,9.0,WeatherDisplay:10.37,2013-04-13 06:00:00,
2013-04-13 07:05:00,39.2,36.5,29.71,ESE,119,0.0,0.0,90,0.00,BKN,,0.01,9.0,WeatherDisplay:10.37,2013-04-13 06:05:00,
2013-04-13 07:10:00,39.2,36.5,29.71,ESE,119,0.0,0.0,90,0.00,BKN,,0.01,12.0,WeatherDisplay:10.37,2013-04-13 06:10:00,
2013-04-13 07:15:00,39.2,36.5,29.72,ESE,121,0.0,0.0,90,0.00,BKN,,0.01,12.0,WeatherDisplay:10.37,2013-04-13 06:15:00,
2013-04-13 07:20:00,39.3,36.6,29.72,ESE,119,0.0,0.0,90,0.00,BKN,,0.01,12.0,WeatherDisplay:10.37,2013-04-13 06:20:00,
2013-04-13 07:26:00,39.3,36.6,29.72,ESE,118,0.0,0.0,90,0.00,BKN,,0.01,12.0,WeatherDisplay:10.37,2013-04-13 06:26:00,
2013-04-13 07:31:00,39.4,36.7,29.72,ESE,119,0.0,0.0,90,0.00,OVC,,0.01,11.0,WeatherDisplay:10.37,2013-04-13 06:31:00,
2013-04-13 07:36:00,39.4,36.7,29.72,ESE,121,0.0,0.0,90,0.00,OVC,,0.01,16.0,WeatherDisplay:10.37,2013-04-13 06:36:00,
2013-04-13 07:42:00,39.4,36.7,29.72,ESE,119,0.0,0.0,90,0.00,BKN,,0.01,21.0,WeatherDisplay:10.37,2013-04-13 06:42:00,
2013-04-13 07:47:00,39.4,36.7,29.72,ESE,120,1.0,1.0,90,0.00,BKN,,0.01,35.0,WeatherDisplay:10.37,2013-04-13 06:47:00,
2013-04-13 07:52:00,39.5,37.1,29.72,ESE,119,1.2,1.2,91,0.00,BKN,,0.01,30.0,WeatherDisplay:10.37,2013-04-13 06:52:00,
2013-04-13 07:57:00,39.5,37.1,29.72,ESE,119,0.0,0.0,91,0.00,BKN,,0.01,26.0,WeatherDisplay:10.37,2013-04-13 06:57:00,
2013-04-13 08:03:00,39.6,37.2,29.72,ESE,119,0.0,0.0,91,0.00,BKN,,0.01,30.0,WeatherDisplay:10.37,2013-04-13 07:03:00,
2013-04-13 08:08:00,39.7,37.3,29.73,ESE,121,3.5,3.5,91,0.00,BKN,,0.01,33.0,WeatherDisplay:10.37,2013-04-13 07:08:00,
2013-04-13 08:13:00,39.7,37.3,29.73,ESE,119,3.5,3.5,91,0.00,BKN,,0.01,33.0,WeatherDisplay:10.37,2013-04-13 07:13:00,
2013-04-13 08:18:00,39.8,37.4,29.73,ESE,119,3.5,3.5,91,0.00,BKN,,0.01,40.0,WeatherDisplay:10.37,2013-04-13 07:18:00,
2013-04-13 08:23:00,39.9,37.5,29.73,ESE,121,3.5,3.5,91,0.00,BKN,,0.01,53.0,WeatherDisplay:10.37,2013-04-13 07:23:00,
2013-04-13 08:28:00,40.0,37.6,29.73,ESE,119,2.3,2.3,91,0.00,BKN,,0.01,63.0,WeatherDisplay:10.37,2013-04-13 07:28:00,
2013-04-13 08:33:00,40.1,37.7,29.73,ESE,119,2.3,2.3,91,0.00,BKN,,0.01,91.0,WeatherDisplay:10.37,2013-04-13 07:33:00,
2013-04-13 08:38:00,40.2,37.8,29.73,ESE,120,3.5,3.5,91,0.00,BKN,,0.01,97.0,WeatherDisplay:10.37,2013-04-13 07:38:00,
2013-04-13 08:43:00,40.4,38.0,29.73,ESE,119,3.5,3.5,91,0.00,BKN,,0.01,100.0,WeatherDisplay:10.37,2013-04-13 07:43:00,
2013-04-13 08:48:00,40.6,38.2,29.73,ESE,120,2.3,2.3,91,0.00,BKN,,0.01,155.0,WeatherDisplay:10.37,2013-04-13 07:48:00,
2013-04-13 08:53:00,40.8,38.4,29.72,ESE,121,2.3,2.3,91,0.00,SCT,,0.01,290.0,WeatherDisplay:10.37,2013-04-13 07:53:00,
2013-04-13 08:59:00,41.2,39.1,29.73,ESE,120,3.0,3.0,92,0.00,FEW,,0.01,149.0,WeatherDisplay:10.37,2013-04-13 07:59:00,
2013-04-13 09:04:00,41.6,39.4,29.72,ESE,120,3.5,3.5,92,0.00,FEW,,0.01,376.0,WeatherDisplay:10.37,2013-04-13 08:04:00,
2013-04-13 09:09:00,42.0,39.8,29.73,ESE,119,3.5,3.5,92,0.00,CLR,,0.01,345.0,WeatherDisplay:10.37,2013-04-13 08:09:00,
2013-04-13 09:14:00,42.4,39.7,29.73,ESE,115,4.6,4.6,90,0.00,CLR,,0.01,432.0,WeatherDisplay:10.37,2013-04-13 08:14:00,
2013-04-13 09:20:00,42.9,40.2,29.73,ESE,119,4.6,4.6,90,0.00,CLR,,0.01,385.0,WeatherDisplay:10.37,2013-04-13 08:20:00,
2013-04-13 09:25:00,43.4,40.4,29.73,ESE,121,6.0,6.0,89,0.00,CLR,,0.01,181.0,WeatherDisplay:10.37,2013-04-13 08:25:00,
2013-04-13 09:30:00,43.8,40.2,29.73,ESE,118,5.8,5.8,87,0.00,FEW,,0.01,156.0,WeatherDisplay:10.37,2013-04-13 08:30:00,
2013-04-13 09:35:00,43.9,40.0,29.73,ESE,117,4.6,4.6,86,0.00,SCT,,0.01,142.0,WeatherDisplay:10.37,2013-04-13 08:35:00,
2013-04-13 09:40:00,44.1,40.2,29.73,ESE,116,5.0,5.0,86,0.00,BKN,,0.01,125.0,WeatherDisplay:10.37,2013-04-13 08:40:00,
2013-04-13 09:45:00,44.2,40.0,29.73,ESE,115,3.5,3.5,85,0.00,BKN,,0.01,346.0,WeatherDisplay:10.37,2013-04-13 08:45:00,
2013-04-13 09:50:00,44.4,40.2,29.73,ESE,117,4.6,4.6,85,0.00,SCT,,0.01,237.0,WeatherDisplay:10.37,2013-04-13 08:50:00,
2013-04-13 09:55:00,44.6,39.8,29.73,SE,134,11.5,11.5,83,0.00,SCT,,0.01,213.0,WeatherDisplay:10.37,2013-04-13 08:55:00,
2013-04-13 10:00:00,44.8,38.4,29.73,SSE,162,10.4,10.4,78,0.00,SCT,,0.01,230.0,WeatherDisplay:10.37,2013-04-13 09:00:00,
2013-04-13 10:06:00,45.1,38.6,29.73,SE,144,5.8,5.8,78,0.00,SCT,,0.01,589.0,WeatherDisplay:10.37,2013-04-13 09:06:00,
2013-04-13 10:11:00,45.5,38.4,29.73,ESE,107,11.5,11.5,76,0.00,CLR,,0.01,508.0,WeatherDisplay:10.37,2013-04-13 09:11:00,
2013-04-13 10:16:00,45.9,38.8,29.72,SSE,159,5.0,5.0,76,0.00,CLR,,0.01,158.0,WeatherDisplay:10.37,2013-04-13 09:16:00,
2013-04-13 10:21:00,46.0,38.2,29.72,SE,137,9.2,9.2,74,0.00,FEW,,0.01,432.0,WeatherDisplay:10.37,2013-04-13 09:21:00,
2013-04-13 10:26:00,46.4,38.9,29.73,ESE,115,6.0,6.0,75,0.00,CLR,,0.01,552.0,WeatherDisplay:10.37,2013-04-13 09:26:00,
2013-04-13 10:32:00,46.8,38.2,29.73,ESE,114,12.7,12.7,72,0.00,CLR,,0.01,547.0,WeatherDisplay:10.37,2013-04-13 09:32:00,
2013-04-13 10:37:00,47.2,37.9,29.73,SSE,150,12.7,12.7,70,0.00,CLR,,0.01,559.0,WeatherDisplay:10.37,2013-04-13 09:37:00,
2013-04-13 10:42:00,47.6,37.9,29.73,South,182,12.7,12.7,69,0.00,CLR,,0.01,559.0,WeatherDisplay:10.37,2013-04-13 09:42:00,
2013-04-13 10:48:00,48.0,37.2,29.72,South,180,11.5,11.5,66,0.00,CLR,,0.01,552.0,WeatherDisplay:10.37,2013-04-13 09:48:00,
2013-04-13 10:53:00,48.3,37.8,29.73,SSW,192,12.7,12.7,67,0.00,CLR,,0.01,559.0,WeatherDisplay:10.37,2013-04-13 09:53:00,
2013-04-13 10:59:00,48.6,37.7,29.73,SSE,168,11.5,11.5,66,0.00,CLR,,0.01,568.0,WeatherDisplay:10.37,2013-04-13 09:59:00,
2013-04-13 11:04:00,48.8,37.2,29.73,SE,139,12.7,12.7,64,0.00,CLR,,0.01,578.0,WeatherDisplay:10.37,2013-04-13 10:04:00,
2013-04-13 11:09:00,49.1,37.4,29.73,South,172,10.0,10.0,64,0.00,CLR,,0.01,591.0,WeatherDisplay:10.37,2013-04-13 10:09:00,
2013-04-13 11:15:00,49.3,36.8,29.73,SE,144,11.5,11.5,62,0.00,CLR,,0.01,578.0,WeatherDisplay:10.37,2013-04-13 10:15:00,
2013-04-13 11:20:00,49.3,36.8,29.72,SE,132,10.0,10.0,62,0.00,CLR,,0.01,432.0,WeatherDisplay:10.37,2013-04-13 10:20:00,
2013-04-13 11:25:00,49.2,36.7,29.73,South,188,6.9,6.9,62,0.00,FEW,,0.01,670.0,WeatherDisplay:10.37,2013-04-13 10:25:00,
2013-04-13 11:30:00,49.2,36.3,29.73,South,182,8.1,8.1,61,0.00,SCT,,0.01,295.0,WeatherDisplay:10.37,2013-04-13 10:30:00,
2013-04-13 11:35:00,49.3,36.4,29.73,SW,230,6.9,6.9,61,0.00,FEW,,0.01,687.0,WeatherDisplay:10.37,2013-04-13 10:35:00,
2013-04-13 11:40:00,49.4,36.9,29.73,SSE,166,13.8,13.8,62,0.00,FEW,,0.01,468.0,WeatherDisplay:10.37,2013-04-13 10:40:00,
2013-04-13 11:46:00,49.4,36.5,29.73,South,170,9.2,9.2,61,0.00,SCT,,0.01,290.0,WeatherDisplay:10.37,2013-04-13 10:46:00,
2013-04-13 11:51:00,49.5,36.6,29.73,SE,145,11.5,11.5,61,0.00,SCT,,0.01,728.0,WeatherDisplay:10.37,2013-04-13 10:51:00,
2013-04-13 11:57:00,49.8,36.9,29.73,South,185,10.4,10.4,61,0.00,CLR,,0.01,274.0,WeatherDisplay:10.37,2013-04-13 10:57:00,
2013-04-13 12:02:00,50.0,37.1,29.73,SE,133,9.2,9.2,61,0.00,CLR,,0.01,675.0,WeatherDisplay:10.37,2013-04-13 11:02:00,
2013-04-13 12:08:00,50.1,37.6,29.73,SE,136,3.5,3.5,62,0.00,CLR,,0.01,684.0,WeatherDisplay:10.37,2013-04-13 11:08:00,
2013-04-13 12:13:00,50.5,37.1,29.73,South,181,5.8,5.8,60,0.00,CLR,,0.01,403.0,WeatherDisplay:10.37,2013-04-13 11:13:00,
2013-04-13 12:20:00,51.1,37.7,29.73,SSE,147,7.0,7.0,60,0.00,CLR,,0.01,650.0,WeatherDisplay:10.37,2013-04-13 11:20:00,
2013-04-13 12:25:00,51.4,37.1,29.73,SE,130,7.0,7.0,58,0.00,CLR,,0.01,671.0,WeatherDisplay:10.37,2013-04-13 11:25:00,
2013-04-13 12:31:00,51.8,37.0,29.73,SE,130,10.4,10.4,57,0.00,CLR,,0.01,664.0,WeatherDisplay:10.37,2013-04-13 11:31:00,
2013-04-13 12:37:00,52.0,37.7,29.72,South,178,10.4,10.4,58,0.00,CLR,,0.01,738.0,WeatherDisplay:10.37,2013-04-13 11:37:00,
2013-04-13 12:42:00,52.1,37.3,29.72,ESE,114,12.7,12.7,57,0.00,CLR,,0.01,248.0,WeatherDisplay:10.37,2013-04-13 11:42:00,
2013-04-13 12:47:00,52.0,37.7,29.71,SE,129,9.2,9.2,58,0.00,CLR,,0.01,728.0,WeatherDisplay:10.37,2013-04-13 11:47:00,
2013-04-13 12:53:00,52.1,37.8,29.71,SSE,149,11.5,11.5,58,0.00,CLR,,0.01,174.0,WeatherDisplay:10.37,2013-04-13 11:53:00,
2013-04-13 12:58:00,52.2,37.9,29.71,SE,140,6.9,6.9,58,0.00,FEW,,0.01,257.0,WeatherDisplay:10.37,2013-04-13 11:58:00,
2013-04-13 13:03:00,52.1,37.8,29.71,SE,130,11.5,11.5,58,0.00,BKN,,0.01,274.0,WeatherDisplay:10.37,2013-04-13 12:03:00,
2013-04-13 13:08:00,52.0,38.1,29.71,SSE,156,9.2,9.2,59,0.00,BKN,,0.01,248.0,WeatherDisplay:10.37,2013-04-13 12:08:00,
2013-04-13 13:13:00,52.1,37.8,29.71,South,182,11.5,11.5,58,0.00,BKN,,0.01,299.0,WeatherDisplay:10.37,2013-04-13 12:13:00,
2013-04-13 13:18:00,52.2,37.9,29.71,SSE,157,11.5,11.5,58,0.00,BKN,,0.01,265.0,WeatherDisplay:10.37,2013-04-13 12:18:00,
2013-04-13 13:23:00,52.2,37.4,29.70,SE,146,8.0,8.0,57,0.00,BKN,,0.01,248.0,WeatherDisplay:10.37,2013-04-13 12:23:00,
2013-04-13 13:29:00,52.2,37.4,29.70,SSW,198,11.5,11.5,57,0.00,BKN,,0.01,246.0,WeatherDisplay:10.37,2013-04-13 12:29:00,
2013-04-13 13:34:00,52.2,37.9,29.70,SSE,157,10.4,10.4,58,0.00,BKN,,0.01,234.0,WeatherDisplay:10.37,2013-04-13 12:34:00,
2013-04-13 13:39:00,52.3,37.5,29.70,South,171,11.5,11.5,57,0.00,BKN,,0.01,230.0,WeatherDisplay:10.37,2013-04-13 12:39:00,
2013-04-13 13:44:00,52.2,37.9,29.69,ESE,111,11.5,11.5,58,0.00,BKN,,0.01,313.0,WeatherDisplay:10.37,2013-04-13 12:44:00,
2013-04-13 13:49:00,52.4,38.0,29.69,SE,140,11.5,11.5,58,0.00,SCT,,0.01,698.0,WeatherDisplay:10.37,2013-04-13 12:49:00,
2013-04-13 13:54:00,52.9,38.5,29.69,SSE,154,12.7,12.7,58,0.00,CLR,,0.01,657.0,WeatherDisplay:10.37,2013-04-13 12:54:00,
2013-04-13 14:00:00,53.5,36.8,29.69,SSW,208,13.8,13.8,53,0.00,CLR,,0.01,650.0,WeatherDisplay:10.37,2013-04-13 13:00:00,
2013-04-13 14:05:00,54.0,36.3,29.69,SSE,168,15.0,15.0,51,0.00,CLR,,0.01,647.0,WeatherDisplay:10.37,2013-04-13 13:05:00,
2013-04-13 14:10:00,54.2,35.9,29.69,SE,145,12.7,12.7,50,0.00,CLR,,0.01,619.0,WeatherDisplay:10.37,2013-04-13 13:10:00,
2013-04-13 14:15:00,54.3,37.0,29.69,SSE,149,10.4,10.4,52,0.00,CLR,,0.01,647.0,WeatherDisplay:10.37,2013-04-13 13:15:00,
2013-04-13 14:21:00,54.4,37.1,29.69,SSE,152,9.2,9.2,52,0.00,CLR,,0.01,246.0,WeatherDisplay:10.37,2013-04-13 13:21:00,
2013-04-13 14:27:00,54.2,37.4,29.68,SSW,195,10.4,10.4,53,0.00,SCT,,0.01,183.0,WeatherDisplay:10.37,2013-04-13 13:27:00,
2013-04-13 14:32:00,54.2,36.5,29.69,SE,145,12.0,12.0,51,0.00,BKN,,0.01,592.0,WeatherDisplay:10.37,2013-04-13 13:32:00,
2013-04-13 14:37:00,54.2,35.9,29.68,SSE,155,15.0,15.0,50,0.00,SCT,,0.01,559.0,WeatherDisplay:10.37,2013-04-13 13:37:00,
2013-04-13 14:43:00,54.4,35.6,29.68,SE,136,13.8,13.8,49,0.00,CLR,,0.01,427.0,WeatherDisplay:10.37,2013-04-13 13:43:00,
2013-04-13 14:48:00,54.6,36.3,29.68,South,189,6.9,6.9,50,0.00,FEW,,0.01,443.0,WeatherDisplay:10.37,2013-04-13 13:48:00,
2013-04-13 14:53:00,54.8,36.0,29.67,SE,125,5.8,5.8,49,0.00,SCT,,0.01,209.0,WeatherDisplay:10.37,2013-04-13 13:53:00,
2013-04-13 14:58:00,54.9,35.6,29.67,SE,132,10.4,10.4,48,0.00,SCT,,0.01,441.0,WeatherDisplay:10.37,2013-04-13 13:58:00,
2013-04-13 15:03:00,54.7,34.8,29.67,ESE,117,15.0,15.0,47,0.00,BKN,,0.01,237.0,WeatherDisplay:10.37,2013-04-13 14:03:00,
2013-04-13 15:09:00,54.5,35.2,29.67,SE,134,17.0,17.0,48,0.00,SCT,,0.01,380.0,WeatherDisplay:10.37,2013-04-13 14:09:00,
2013-04-13 15:14:00,54.4,35.6,29.66,ESE,115,15.0,15.0,49,0.00,SCT,,0.01,360.0,WeatherDisplay:10.37,2013-04-13 14:14:00,
2013-04-13 15:19:00,54.3,35.0,29.66,SSE,153,13.8,13.8,48,0.00,SCT,,0.01,253.0,WeatherDisplay:10.37,2013-04-13 14:19:00,
2013-04-13 15:24:00,54.2,35.4,29.66,East,91,11.5,11.5,49,0.00,SCT,,0.01,373.0,WeatherDisplay:10.37,2013-04-13 14:24:00,
2013-04-13 15:30:00,54.3,36.0,29.66,ESE,106,18.4,18.4,50,0.00,SCT,,0.01,271.0,WeatherDisplay:10.37,2013-04-13 14:30:00,
2013-04-13 15:35:00,54.4,36.6,29.66,SE,140,11.5,11.5,51,0.00,SCT,,0.01,295.0,WeatherDisplay:10.37,2013-04-13 14:35:00,
2013-04-13 15:40:00,54.5,36.2,29.65,SE,140,11.5,11.5,50,0.00,SCT,,0.01,236.0,WeatherDisplay:10.37,2013-04-13 14:40:00,
2013-04-13 15:45:00,54.5,36.2,29.66,SE,141,13.8,13.8,50,0.00,SCT,,0.01,260.0,WeatherDisplay:10.37,2013-04-13 14:45:00,
2013-04-13 15:51:00,54.5,36.2,29.65,ESE,122,11.5,11.5,50,0.00,SCT,,0.01,221.0,WeatherDisplay:10.37,2013-04-13 14:51:00,
2013-04-13 15:56:00,54.5,36.2,29.65,ESE,109,14.0,14.0,50,0.00,BKN,,0.01,209.0,WeatherDisplay:10.37,2013-04-13 14:56:00,
2013-04-13 16:02:00,54.5,35.7,29.65,SE,135,12.7,12.7,49,0.00,BKN,,0.01,190.0,WeatherDisplay:10.37,2013-04-13 15:02:00,
2013-04-13 16:07:00,54.3,36.0,29.64,SE,134,15.0,15.0,50,0.00,BKN,,0.01,181.0,WeatherDisplay:10.37,2013-04-13 15:07:00,
2013-04-13 16:13:00,54.2,35.9,29.64,ESE,121,16.1,16.1,50,0.00,BKN,,0.01,185.0,WeatherDisplay:10.37,2013-04-13 15:13:00,
2013-04-13 16:18:00,54.2,35.4,29.63,SE,133,16.1,16.1,49,0.00,BKN,,0.01,188.0,WeatherDisplay:10.37,2013-04-13 15:18:00,
2013-04-13 16:24:00,54.2,35.4,29.63,South,182,11.5,11.5,49,0.00,BKN,,0.01,195.0,WeatherDisplay:10.37,2013-04-13 15:24:00,
2013-04-13 16:29:00,54.4,35.6,29.63,SSE,148,15.0,15.0,49,0.00,BKN,,0.01,179.0,WeatherDisplay:10.37,2013-04-13 15:29:00,
2013-04-13 16:34:00,54.5,35.7,29.63,SE,136,15.0,15.0,49,0.00,BKN,,0.01,153.0,WeatherDisplay:10.37,2013-04-13 15:34:00,
2013-04-13 16:39:00,54.5,35.2,29.62,SE,136,11.5,11.5,48,0.00,BKN,,0.01,141.0,WeatherDisplay:10.37,2013-04-13 15:39:00,
2013-04-13 16:45:00,54.5,35.7,29.62,ESE,123,11.5,11.5,49,0.00,BKN,,0.01,148.0,WeatherDisplay:10.37,2013-04-13 15:45:00,
2013-04-13 16:50:00,54.5,35.7,29.62,SE,146,11.5,11.5,49,0.00,BKN,,0.01,134.0,WeatherDisplay:10.37,2013-04-13 15:50:00,
2013-04-13 16:55:00,54.6,35.3,29.62,ESE,116,11.5,11.5,48,0.00,BKN,,0.01,120.0,WeatherDisplay:10.37,2013-04-13 15:55:00,
2013-04-13 17:00:00,54.5,35.7,29.62,SSE,168,9.2,9.2,49,0.00,BKN,,0.01,125.0,WeatherDisplay:10.37,2013-04-13 16:00:00,
2013-04-13 17:05:00,54.5,35.2,29.61,SE,129,11.5,11.5,48,0.00,BKN,,0.01,132.0,WeatherDisplay:10.37,2013-04-13 16:05:00,
2013-04-13 17:10:00,54.5,35.7,29.61,ESE,118,11.5,11.5,49,0.00,BKN,,0.01,123.0,WeatherDisplay:10.37,2013-04-13 16:10:00,
2013-04-13 17:16:00,54.5,35.7,29.61,ESE,111,12.0,12.0,49,0.00,BKN,,0.01,98.0,WeatherDisplay:10.37,2013-04-13 16:16:00,
2013-04-13 17:21:00,54.5,36.2,29.61,ESE,114,11.5,11.5,50,0.00,BKN,,0.01,97.0,WeatherDisplay:10.37,2013-04-13 16:21:00,
2013-04-13 17:27:00,54.5,36.7,29.61,SE,142,11.5,11.5,51,0.00,BKN,,0.01,97.0,WeatherDisplay:10.37,2013-04-13 16:27:00,
2013-04-13 17:32:00,54.6,36.8,29.60,East,98,15.0,15.0,51,0.00,BKN,,0.01,95.0,WeatherDisplay:10.37,2013-04-13 16:32:00,
2013-04-13 17:37:00,54.6,36.8,29.60,SE,135,12.7,12.7,51,0.00,BKN,,0.01,91.0,WeatherDisplay:10.37,2013-04-13 16:37:00,
2013-04-13 17:42:00,54.7,36.9,29.59,ESE,123,12.7,12.7,51,0.00,BKN,,0.01,84.0,WeatherDisplay:10.37,2013-04-13 16:42:00,
2013-04-13 17:47:00,54.7,36.4,29.60,SE,125,11.5,11.5,50,0.00,BKN,,0.01,67.0,WeatherDisplay:10.37,2013-04-13 16:47:00,
2013-04-13 17:53:00,54.7,35.9,29.59,SSE,160,13.8,13.8,49,0.00,BKN,,0.01,54.0,WeatherDisplay:10.37,2013-04-13 16:53:00,
2013-04-13 17:58:00,54.6,35.8,29.59,SE,139,13.8,13.8,49,0.00,BKN,,0.01,49.0,WeatherDisplay:10.37,2013-04-13 16:58:00,
2013-04-13 18:03:00,54.6,35.8,29.59,SE,135,12.7,12.7,49,0.00,BKN,,0.01,44.0,WeatherDisplay:10.37,2013-04-13 17:03:00,
2013-04-13 18:08:00,54.5,35.7,29.59,SE,130,12.7,12.7,49,0.00,BKN,,0.01,42.0,WeatherDisplay:10.37,2013-04-13 17:08:00,
2013-04-13 18:13:00,54.5,35.7,29.58,SE,134,19.6,19.6,49,0.00,BKN,,0.01,35.0,WeatherDisplay:10.37,2013-04-13 17:13:00,
2013-04-13 18:18:00,54.4,36.1,29.58,SE,134,12.7,12.7,50,0.00,BKN,,0.01,35.0,WeatherDisplay:10.37,2013-04-13 17:18:00,
2013-04-13 18:23:00,54.3,36.5,29.58,SE,140,11.5,11.5,51,0.00,BKN,,0.01,30.0,WeatherDisplay:10.37,2013-04-13 17:23:00,
2013-04-13 18:28:00,54.3,37.5,29.57,South,183,12.7,12.7,53,0.00,BKN,,0.01,35.0,WeatherDisplay:10.37,2013-04-13 17:28:00,
2013-04-13 18:33:00,54.1,37.8,29.57,SE,137,21.9,21.9,54,0.00,BKN,,0.01,33.0,WeatherDisplay:10.37,2013-04-13 17:33:00,
2013-04-13 18:38:00,54.0,38.2,29.57,SE,129,19.6,19.6,55,0.00,BKN,,0.01,25.0,WeatherDisplay:10.37,2013-04-13 17:38:00,
2013-04-13 18:44:00,53.8,38.5,29.57,SE,140,20.7,20.7,56,0.00,BKN,,0.01,28.0,WeatherDisplay:10.37,2013-04-13 17:44:00,
2013-04-13 18:49:00,53.6,38.3,29.57,SE,136,16.1,16.1,56,0.01,RA,,0.02,23.0,WeatherDisplay:10.37,2013-04-13 17:49:00,
2013-04-13 18:54:00,53.5,38.6,29.57,SSE,168,11.5,11.5,57,0.01,RA,,0.02,28.0,WeatherDisplay:10.37,2013-04-13 17:54:00,
2013-04-13 18:59:00,53.4,38.5,29.56,South,172,11.5,11.5,57,0.01,BKN,,0.02,30.0,WeatherDisplay:10.37,2013-04-13 17:59:00,
2013-04-13 19:04:00,53.2,38.4,29.56,SE,143,16.1,16.1,57,0.01,BKN,,0.02,26.0,WeatherDisplay:10.37,2013-04-13 18:04:00,
2013-04-13 19:09:00,53.0,38.2,29.56,SSE,161,17.3,17.3,57,0.01,BKN,,0.02,23.0,WeatherDisplay:10.37,2013-04-13 18:09:00,
2013-04-13 19:14:00,52.7,38.3,29.56,SE,124,14.0,14.0,58,0.01,BKN,,0.02,21.0,WeatherDisplay:10.37,2013-04-13 18:14:00,
2013-04-13 19:19:00,52.5,38.6,29.56,ESE,117,12.7,12.7,59,0.01,BKN,,0.02,21.0,WeatherDisplay:10.37,2013-04-13 18:19:00,
2013-04-13 19:24:00,52.3,38.4,29.55,South,175,13.8,13.8,59,0.01,BKN,,0.02,19.0,WeatherDisplay:10.37,2013-04-13 18:24:00,
2013-04-13 19:27:00,52.2,38.3,29.56,SE,142,11.5,11.5,59,0.01,BKN,,0.02,18.0,WeatherDisplay:10.37,2013-04-13 18:27:00,
2013-04-13 19:32:00,52.0,38.1,29.56,SE,130,15.0,15.0,59,0.01,BKN,,0.02,14.0,WeatherDisplay:10.37,2013-04-13 18:32:00,
2013-04-13 19:37:00,51.8,38.3,29.56,SE,136,14.0,14.0,60,0.01,BKN,,0.02,11.0,WeatherDisplay:10.37,2013-04-13 18:37:00,
2013-04-13 19:42:00,51.6,38.2,29.55,SSE,161,18.4,18.4,60,0.01,BKN,,0.02,11.0,WeatherDisplay:10.37,2013-04-13 18:42:00,
2013-04-13 19:47:00,51.5,38.5,29.55,SE,144,13.8,13.8,61,0.00,BKN,,0.02,7.0,WeatherDisplay:10.37,2013-04-13 18:47:00,
2013-04-13 19:52:00,51.4,38.8,29.55,SE,132,17.3,17.3,62,0.00,BKN,,0.02,5.0,WeatherDisplay:10.37,2013-04-13 18:52:00,
2013-04-13 19:57:00,51.2,39.4,29.55,SE,128,19.6,19.6,64,0.00,OVC,,0.02,0.0,WeatherDisplay:10.37,2013-04-13 18:57:00,
2013-04-13 20:03:00,51.0,39.6,29.55,SSE,157,19.6,19.6,65,0.00,OVC,,0.02,0.0,WeatherDisplay:10.37,2013-04-13 19:03:00,
2013-04-13 20:08:00,50.8,39.8,29.55,SSE,163,17.3,17.3,66,0.00,OVC,,0.02,0.0,WeatherDisplay:10.37,2013-04-13 19:08:00,
2013-04-13 20:13:00,50.7,40.1,29.55,SSE,161,19.6,19.6,67,0.00,OVC,,0.02,0.0,WeatherDisplay:10.37,2013-04-13 19:13:00,
2013-04-13 20:18:00,50.5,40.3,29.54,SE,140,12.7,12.7,68,0.00,OVC,,0.02,0.0,WeatherDisplay:10.37,2013-04-13 19:18:00,
2013-04-13 20:23:00,50.4,40.6,29.54,ESE,114,16.0,16.0,69,0.00,OVC,,0.02,0.0,WeatherDisplay:10.37,2013-04-13 19:23:00,
2013-04-13 20:28:00,50.2,40.8,29.54,SE,137,21.9,21.9,70,0.00,OVC,,0.02,0.0,WeatherDisplay:10.37,2013-04-13 19:28:00,
2013-04-13 20:33:00,50.2,41.2,29.55,SE,144,15.0,15.0,71,0.00,OVC,,0.02,0.0,WeatherDisplay:10.37,2013-04-13 19:33:00,
2013-04-13 20:38:00,50.1,41.4,29.55,South,172,23.0,23.0,72,0.00,OVC,,0.02,0.0,WeatherDisplay:10.37,2013-04-13 19:38:00,
2013-04-13 20:43:00,50.0,42.0,29.55,SE,127,13.8,13.8,74,0.00,OVC,,0.02,0.0,WeatherDisplay:10.37,2013-04-13 19:43:00,
2013-04-13 20:48:00,49.8,41.8,29.54,SSE,153,13.8,13.8,74,0.00,OVC,,0.02,0.0,WeatherDisplay:10.37,2013-04-13 19:48:00,
2013-04-13 20:53:00,49.7,42.1,29.54,SE,129,11.0,11.0,75,0.00,CLR,,0.02,0.0,WeatherDisplay:10.37,2013-04-13 19:53:00,
2013-04-13 20:58:00,49.6,42.0,29.53,SE,136,18.4,18.4,75,0.00,CLR,,0.02,0.0,WeatherDisplay:10.37,2013-04-13 19:58:00,
2013-04-13 21:03:00,49.5,42.2,29.53,SE,135,17.3,17.3,76,0.00,CLR,,0.02,0.0,WeatherDisplay:10.37,2013-04-13 20:03:00,
2013-04-13 21:08:00,49.4,42.5,29.53,SE,140,15.0,15.0,77,0.00,CLR,,0.02,0.0,WeatherDisplay:10.37,2013-04-13 20:08:00,
2013-04-13 21:13:00,49.3,42.7,29.52,SSE,159,15.0,15.0,78,0.00,CLR,,0.02,0.0,WeatherDisplay:10.37,2013-04-13 20:13:00,
2013-04-13 21:18:00,49.1,42.5,29.52,ESE,121,13.8,13.8,78,0.00,CLR,,0.02,0.0,WeatherDisplay:10.37,2013-04-13 20:18:00,
2013-04-13 21:23:00,48.8,42.6,29.51,SSE,153,12.7,12.7,79,0.00,CLR,,0.02,0.0,WeatherDisplay:10.37,2013-04-13 20:23:00,
2013-04-13 21:28:00,48.7,42.8,29.50,ESE,105,11.5,11.5,80,0.00,CLR,,0.02,0.0,WeatherDisplay:10.37,2013-04-13 20:28:00,
2013-04-13 21:33:00,48.6,42.7,29.50,ESE,106,10.4,10.4,80,0.00,CLR,,0.02,0.0,WeatherDisplay:10.37,2013-04-13 20:33:00,
2013-04-13 21:38:00,48.5,42.9,29.50,ESE,119,11.5,11.5,81,0.00,CLR,,0.02,0.0,WeatherDisplay:10.37,2013-04-13 20:38:00,
2013-04-13 21:43:00,48.4,42.8,29.50,ESE,105,6.9,6.9,81,0.00,CLR,,0.02,0.0,WeatherDisplay:10.37,2013-04-13 20:43:00,
2013-04-13 21:48:00,48.3,43.1,29.50,SE,126,6.9,6.9,82,0.00,CLR,,0.02,0.0,WeatherDisplay:10.37,2013-04-13 20:48:00,
2013-04-13 21:53:00,48.2,43.0,29.50,ESE,115,11.5,11.5,82,0.01,RA,,0.02,0.0,WeatherDisplay:10.37,2013-04-13 20:53:00,
2013-04-13 21:58:00,48.2,43.0,29.49,ESE,122,6.9,6.9,82,0.01,RA,,0.02,0.0,WeatherDisplay:10.37,2013-04-13 20:58:00,
2013-04-13 22:03:00,48.1,43.2,29.49,SE,125,10.4,10.4,83,0.01,,,0.02,0.0,WeatherDisplay:10.37,2013-04-13 21:03:00,
2013-04-13 22:08:00,48.0,43.1,29.49,SE,131,11.5,11.5,83,0.01,CLR,,0.02,0.0,WeatherDisplay:10.37,2013-04-13 21:08:00,
2013-04-13 22:13:00,48.1,43.2,29.48,ESE,105,9.2,9.2,83,0.01,CLR,,0.02,0.0,WeatherDisplay:10.37,2013-04-13 21:13:00,
2013-04-13 22:18:00,48.1,43.2,29.48,SE,145,9.0,9.0,83,0.01,CLR,,0.02,0.0,WeatherDisplay:10.37,2013-04-13 21:18:00,
2013-04-13 22:23:00,48.2,43.3,29.47,ESE,113,6.9,6.9,83,0.01,CLR,,0.02,0.0,WeatherDisplay:10.37,2013-04-13 21:23:00,
2013-04-13 22:28:00,48.3,43.4,29.47,ESE,114,4.6,4.6,83,0.01,CLR,,0.02,0.0,WeatherDisplay:10.37,2013-04-13 21:28:00,
2013-04-13 22:33:00,48.4,43.5,29.46,ESE,119,5.8,5.8,83,0.01,CLR,,0.02,0.0,WeatherDisplay:10.37,2013-04-13 21:33:00,
2013-04-13 22:38:00,48.5,43.6,29.47,ESE,111,9.2,9.2,83,0.01,CLR,,0.02,0.0,WeatherDisplay:10.37,2013-04-13 21:38:00,
2013-04-13 22:43:00,48.7,43.8,29.46,SE,130,10.4,10.4,83,0.01,CLR,,0.02,0.0,WeatherDisplay:10.37,2013-04-13 21:43:00,
2013-04-13 22:48:00,48.8,43.9,29.46,SE,137,6.9,6.9,83,0.01,CLR,,0.02,0.0,WeatherDisplay:10.37,2013-04-13 21:48:00,
2013-04-13 22:53:00,49.0,44.1,29.45,SE,129,12.7,12.7,83,0.00,CLR,,0.02,0.0,WeatherDisplay:10.37,2013-04-13 21:53:00,
2013-04-13 22:58:00,49.1,44.2,29.45,SE,142,5.8,5.8,83,0.00,CLR,,0.02,0.0,WeatherDisplay:10.37,2013-04-13 21:58:00,
2013-04-13 23:03:00,49.3,44.4,29.45,SSE,160,3.5,3.5,83,0.00,CLR,,0.02,0.0,WeatherDisplay:10.37,2013-04-13 22:03:00,
2013-04-13 23:08:00,49.4,44.5,29.45,SSE,150,11.5,11.5,83,0.00,CLR,,0.02,0.0,WeatherDisplay:10.37,2013-04-13 22:08:00,
2013-04-13 23:13:00,49.6,44.6,29.46,SE,144,6.9,6.9,83,0.00,CLR,,0.02,0.0,WeatherDisplay:10.37,2013-04-13 22:13:00,
2013-04-13 23:18:00,49.7,44.7,29.44,SSE,149,5.8,5.8,83,0.00,CLR,,0.02,0.0,WeatherDisplay:10.37,2013-04-13 22:18:00,
2013-04-13 23:23:00,49.8,44.8,29.44,SE,137,11.5,11.5,83,0.00,CLR,,0.02,0.0,WeatherDisplay:10.37,2013-04-13 22:23:00,
2013-04-13 23:28:00,50.1,45.1,29.43,East,94,9.2,9.2,83,0.00,CLR,,0.02,0.0,WeatherDisplay:10.37,2013-04-13 22:28:00,
2013-04-13 23:33:00,50.3,45.3,29.43,SE,143,4.6,4.6,83,0.00,CLR,,0.02,0.0,WeatherDisplay:10.37,2013-04-13 22:33:00,
2013-04-13 23:38:00,50.5,45.5,29.43,SE,134,11.5,11.5,83,0.00,CLR,,0.02,0.0,WeatherDisplay:10.37,2013-04-13 22:38:00,
2013-04-13 23:43:00,50.7,45.4,29.42,SSE,149,11.5,11.5,82,0.00,CLR,,0.02,0.0,WeatherDisplay:10.37,2013-04-13 22:43:00,
2013-04-13 23:48:00,50.9,45.6,29.43,SE,132,17.3,17.3,82,0.00,CLR,,0.02,0.0,WeatherDisplay:10.37,2013-04-13 22:48:00,
2013-04-13 23:53:00,51.1,45.8,29.42,SE,136,13.0,13.0,82,0.00,CLR,,0.02,0.0,WeatherDisplay:10.37,2013-04-13 22:53:00,
2013-04-13 23:58:00,51.3,46.0,29.42,SE,142,13.8,13.8,82,0.00,CLR,,0.02,0.0,WeatherDisplay:10.37,2013-04-13 22:58:00,